Santaquin, UT (84655)

7:49 AM MST on February 09, 2016 (GMT -0700)
APRSWXNET | | Change Station
CLOSE
Current Station
Personal Weather Station
Location: Santaquin, UT
Elevation: 4652 ft
Nearby Weather Stations

Elev 4652 ft 40.04 °N, 111.74 °W | Updated 31 minutes ago

Overcast
Overcast
17 °F
Feels Like 17 °F
N
0
Wind Variable Wind from WSW
Gusts 1.0 mph

Today
High -- | Low -- °F
--% Chance of Precip.
Yesterday
High -- | Low -- °F
Precip. -- in
Pressure 30.59 in
Visibility 3.0 miles
Clouds Scattered Clouds 100 ft
Windchill 17 °F
Dew Point 14 °F
Humidity 86%
Rainfall in
Snow Depth Not available.
7:27 AM 5:55 PM
New Moon, 1% visible
METAR K36U 091435Z AUTO 00000KT 3SM BR SCT001 M16/M18 A3059 RMK AO2
Pressure 30.59 in
Visibility 3.0 miles
Clouds Scattered Clouds 100 ft
Windchill 17 °F
Dew Point 14 °F
Humidity 86%
Rainfall in
Snow Depth Not available.
7:27 AM 5:55 PM
New Moon, 1% visible
METAR K36U 091435Z AUTO 00000KT 3SM BR SCT001 M16/M18 A3059 RMK AO2

10-Day Weather Forecast

Almanac

Astronomy

Feb. 09, 2016 Rise Set
Actual Time
Civil Twilight
Nautical Twilight
Astronomical Twilight
Moon
Length of Visible Light
Length of Day
Tomorrow will be .
, % of the Moon is Illuminated

Today's Extremes

State Highs State Lows

Community

WunderPhotos

Upload Photos

1,891,614 photos uploaded!

WunderBlog® & News

Nearby

Air Quality

  Air Quality AQ Index Pollutant
Not available.

Snow Depth

Station Depth Elevation

Earthquake Activity

City Distance Mag. Time & Date
Minimum magnitude displayed is 2.5.

Coastal Water Temperatures

Place Temperature

Stations

Nearby Weather Stations

Station Location Temp. Windchill Dew Point Humidity Wind Precip. Elev Updated Type
                   

Watches & Warnings

There are currently no watches in effect.